Time;durP1;ratioP1;P1;durP2;ratioP2;P2;SDS_P1;SDS_P2;PMS_P1;PMS_P2;Temp;Humidity;BMP_temperature;BMP_pressure;BME280_temperature;BME280_humidity;BME280_pressure;Samples;Min_cycle;Max_cycle;Signal;HPM_P1;HPM_P2
2023/03/12 00:00:57;;;;;;;4.40;2.87;;;;;;;-1.46;100.00;100012.59;5046917;28;20213;-73
2023/03/12 00:03:23;;;;;;;3.10;2.80;;;;;;;-1.49;100.00;100004.88;5062558;28;20238;-72
2023/03/12 00:05:49;;;;;;;4.23;3.37;;;;;;;-1.52;100.00;100005.66;5058730;28;20186;-73
2023/03/12 00:08:15;;;;;;;4.07;3.77;;;;;;;-1.55;100.00;100008.91;5043580;28;20254;-73
2023/03/12 00:10:40;;;;;;;6.73;4.23;;;;;;;-1.56;100.00;100001.25;5041671;28;20228;-73
2023/03/12 00:13:07;;;;;;;5.10;4.47;;;;;;;-1.57;100.00;100005.44;5044117;28;20270;-72
2023/03/12 00:15:38;;;;;;;5.60;4.33;;;;;;;-1.58;100.00;100003.72;5040232;28;20802;-73
2023/03/12 00:18:07;;;;;;;6.20;4.33;;;;;;;-1.61;100.00;99998.56;5044743;28;20740;-72
2023/03/12 00:20:32;;;;;;;5.07;4.30;;;;;;;-1.64;100.00;99993.38;5046089;28;20282;-73
2023/03/12 00:22:58;;;;;;;5.23;4.10;;;;;;;-1.65;100.00;99995.84;5044180;28;20679;-72
2023/03/12 00:25:27;;;;;;;5.63;4.10;;;;;;;-1.65;100.00;100004.31;5044381;28;20683;-72
2023/03/12 00:27:53;;;;;;;4.60;3.57;;;;;;;-1.64;100.00;100000.09;5046437;28;20742;-73
2023/03/12 00:30:19;;;;;;;3.60;3.27;;;;;;;-1.64;100.00;100000.09;5061709;28;20303;-72
2023/03/12 00:32:48;;;;;;;3.37;2.93;;;;;;;-1.65;100.00;99994.19;5045876;28;20196;-73
2023/03/12 00:35:14;;;;;;;3.97;3.57;;;;;;;-1.64;100.00;99995.03;5045054;28;20677;-73
2023/03/12 00:37:39;;;;;;;5.30;2.90;;;;;;;-1.65;100.00;99994.19;5043625;28;20219;-73
2023/03/12 00:40:09;;;;;;;3.07;2.77;;;;;;;-1.63;100.00;99997.63;5045316;28;20212;-72
2023/03/12 00:42:34;;;;;;;4.43;2.83;;;;;;;-1.63;100.00;99984.94;5048840;28;20183;-73
2023/03/12 00:45:00;;;;;;;4.37;2.87;;;;;;;-1.61;100.00;99997.69;5042369;28;20198;-72
2023/03/12 00:47:26;;;;;;;4.37;2.70;;;;;;;-1.59;100.00;99986.75;5040464;28;20185;-73
2023/03/12 00:49:52;;;;;;;3.40;2.57;;;;;;;-1.55;100.00;99993.69;5044184;28;20208;-73
2023/03/12 00:52:18;;;;;;;3.73;2.77;;;;;;;-1.50;100.00;99998.91;5047881;28;20184;-73
2023/03/12 00:54:43;;;;;;;4.17;2.63;;;;;;;-1.43;100.00;99992.38;5057878;28;20183;-73
2023/03/12 00:57:15;;;;;;;4.37;2.77;;;;;;;-1.38;100.00;100001.91;5043440;28;20212;-72
2023/03/12 00:59:41;;;;;;;3.47;2.50;;;;;;;-1.33;100.00;100008.81;5046232;28;20680;-72
2023/03/12 01:02:08;;;;;;;2.97;2.60;;;;;;;-1.30;100.00;100002.19;5046762;28;20206;-72
2023/03/12 01:04:34;;;;;;;2.67;2.47;;;;;;;-1.27;100.00;99998.88;5043705;28;20188;-72
2023/03/12 01:06:59;;;;;;;3.17;2.77;;;;;;;-1.25;100.00;99997.25;5060257;28;20192;-72
2023/03/12 01:09:25;;;;;;;3.30;2.87;;;;;;;-1.23;100.00;100010.88;5056992;28;20212;-72
2023/03/12 01:11:51;;;;;;;3.67;2.83;;;;;;;-1.24;100.00;100006.59;5059634;28;20222;-72
2023/03/12 01:14:17;;;;;;;3.23;2.93;;;;;;;-1.27;100.00;100011.56;5043152;28;20205;-73
2023/03/12 01:16:46;;;;;;;2.80;2.47;;;;;;;-1.30;100.00;100012.34;5038134;28;20214;-72
2023/03/12 01:19:12;;;;;;;3.17;2.80;;;;;;;-1.34;100.00;100010.50;5041762;28;20210;-72
2023/03/12 01:21:37;;;;;;;3.33;3.00;;;;;;;-1.38;100.00;100009.53;5048118;28;20783;-73
2023/03/12 01:24:03;;;;;;;4.03;2.73;;;;;;;-1.41;100.00;100008.53;5041875;28;20680;-73
2023/03/12 01:26:29;;;;;;;4.77;3.27;;;;;;;-1.45;100.00;100005.03;5056410;28;20918;-72
2023/03/12 01:28:55;;;;;;;3.30;2.77;;;;;;;-1.47;100.00;100008.34;5059634;28;20211;-73
2023/03/12 01:31:21;;;;;;;3.77;2.87;;;;;;;-1.48;100.00;100009.16;5041740;28;20217;-72
2023/03/12 01:33:51;;;;;;;3.57;3.10;;;;;;;-1.49;100.00;100007.41;5046830;28;20199;-72
2023/03/12 01:36:21;;;;;;;3.43;3.10;;;;;;;-1.49;100.00;100007.41;5043582;28;20585;-72
2023/03/12 01:38:49;;;;;;;3.57;3.17;;;;;;;-1.49;100.00;99998.09;5062184;28;20184;-72
2023/03/12 01:41:15;;;;;;;4.67;2.93;;;;;;;-1.46;100.00;99992.31;5046959;28;20234;-72
2023/03/12 01:43:44;;;;;;;4.57;3.23;;;;;;;-1.42;100.00;99999.19;5036916;28;21161;-73
2023/03/12 01:46:18;;;;;;;4.47;3.03;;;;;;;-1.33;100.00;99998.66;5040734;28;20187;-73
2023/03/12 01:48:50;;;;;;;3.23;2.93;;;;;;;-1.25;100.00;100002.31;5042385;28;20222;-73
2023/03/12 01:51:21;;;;;;;3.80;3.13;;;;;;;-1.17;100.00;99995.81;5045331;28;20608;-73
2023/03/12 01:53:49;;;;;;;4.20;3.10;;;;;;;-1.13;100.00;99995.13;5048549;28;20190;-73
2023/03/12 01:56:20;;;;;;;4.10;3.20;;;;;;;-1.10;100.00;99987.59;5083467;28;20192;-73
2023/03/12 01:58:52;;;;;;;4.97;3.83;;;;;;;-1.06;100.00;99985.19;5053703;28;20196;-73
2023/03/12 02:01:21;;;;;;;4.63;3.77;;;;;;;-1.03;100.00;99987.78;5046216;28;20193;-73
2023/03/12 02:03:52;;;;;;;4.43;3.40;;;;;;;-1.02;100.00;99979.38;5040951;28;20798;-73
2023/03/12 02:06:32;;;;;;;3.73;3.33;;;;;;;-1.00;100.00;99980.28;5041599;28;20225;-72
2023/03/12 02:09:00;;;;;;;4.00;3.60;;;;;;;-0.98;100.00;99976.13;5060502;28;20208;-72
2023/03/12 02:11:26;;;;;;;4.20;3.63;;;;;;;-0.96;100.00;99982.13;5046704;28;20179;-72
2023/03/12 02:14:01;;;;;;;4.80;3.50;;;;;;;-0.94;100.00;99973.72;5057385;28;20203;-72
2023/03/12 02:16:31;;;;;;;4.90;3.80;;;;;;;-0.90;100.00;99974.69;5056731;28;20342;-73
2023/03/12 02:19:00;;;;;;;3.43;2.80;;;;;;;-0.84;100.00;99972.34;5060807;28;20215;-73
2023/03/12 02:21:29;;;;;;;3.83;3.40;;;;;;;-0.78;100.00;99971.69;5039600;28;20215;-72
2023/03/12 02:24:39;;;;;;;3.63;3.33;;;;;;;-0.75;100.00;99971.78;5044042;28;20193;-72
2023/03/12 02:27:07;;;;;;;4.27;3.87;;;;;;;-0.68;100.00;99971.16;5016672;28;20202;-72
2023/03/12 02:29:34;;;;;;;5.27;3.80;;;;;;;-0.63;100.00;99963.69;5037844;28;20206;-73
2023/03/12 02:32:03;;;;;;;4.63;3.50;;;;;;;-0.59;100.00;99959.56;5037954;28;20186;-73
2023/03/12 02:34:29;;;;;;;4.73;3.70;;;;;;;-0.55;100.00;99956.31;5040857;28;20240;-73
2023/03/12 02:36:54;;;;;;;4.40;3.70;;;;;;;-0.50;100.00;99955.63;5045226;28;20701;-72
2023/03/12 02:39:20;;;;;;;5.40;3.73;;;;;;;-0.47;100.00;99962.47;5059993;28;20205;-73
2023/03/12 02:41:56;;;;;;;4.73;3.80;;;;;;;-0.45;100.00;99943.06;5039067;28;20281;-73
2023/03/12 02:44:25;;;;;;;4.13;3.73;;;;;;;-0.43;100.00;99943.97;5043653;28;20245;-73
2023/03/12 02:46:54;;;;;;;3.63;3.33;;;;;;;-0.41;100.00;99939.78;5043279;28;20362;-73
2023/03/12 02:49:22;;;;;;;3.93;2.77;;;;;;;-0.36;100.00;99947.56;5043248;28;20210;-73
2023/03/12 02:51:49;;;;;;;5.97;3.53;;;;;;;-0.33;100.00;99945.94;5040990;28;20650;-73
2023/03/12 02:54:17;;;;;;;3.77;3.30;;;;;;;-0.29;100.00;99953.69;5044691;28;20736;-73
2023/03/12 02:56:44;;;;;;;4.87;3.30;;;;;;;-0.25;100.00;99955.50;5040729;28;20215;-71
2023/03/12 02:59:12;;;;;;;5.63;4.30;;;;;;;-0.24;100.00;99957.22;5040779;28;20216;-73
2023/03/12 03:01:38;;;;;;;4.37;3.70;;;;;;;-0.19;100.00;99955.66;5056741;28;20247;-72
2023/03/12 03:04:06;;;;;;;4.20;3.80;;;;;;;-0.14;100.00;99963.41;5038220;28;20191;-73
2023/03/12 03:06:36;;;;;;;4.43;3.80;;;;;;;-0.09;100.00;99975.50;5054960;28;20203;-72
2023/03/12 03:09:02;;;;;;;5.13;4.07;;;;;;;-0.05;100.00;99968.81;5038890;28;20948;-72
2023/03/12 03:11:28;;;;;;;3.93;3.40;;;;;;;0.00;100.00;99962.16;5039112;28;20205;-72
2023/03/12 03:13:54;;;;;;;4.83;3.63;;;;;;;0.05;100.00;99963.16;5041635;28;22025;-72
2023/03/12 03:16:21;;;;;;;3.77;3.30;;;;;;;0.10;100.00;99950.53;5033265;28;20191;-72
2023/03/12 03:18:47;;;;;;;3.87;3.20;;;;;;;0.14;100.00;99952.38;5055457;28;20209;-72
2023/03/12 03:21:15;;;;;;;4.23;3.50;;;;;;;0.19;100.00;99947.41;5042072;28;20497;-73
2023/03/12 03:23:45;;;;;;;4.53;3.83;;;;;;;0.22;100.00;99933.09;5066141;28;20182;-73
2023/03/12 03:26:12;;;;;;;6.87;4.57;;;;;;;0.26;100.00;99941.66;5045040;28;20212;-73
2023/03/12 03:28:38;;;;;;;4.57;3.93;;;;;;;0.27;100.00;99939.16;5048035;28;20196;-73
2023/03/12 03:31:04;;;;;;;5.57;4.40;;;;;;;0.30;100.00;99939.25;5046006;28;20176;-73
2023/03/12 03:33:33;;;;;;;3.83;3.53;;;;;;;0.32;100.00;99934.19;5064085;28;20214;-72
2023/03/12 03:36:00;;;;;;;5.00;3.60;;;;;;;0.34;100.00;99930.00;5048708;28;20615;-73
2023/03/12 03:38:28;;;;;;;3.57;3.20;;;;;;;0.38;100.00;99939.44;5043597;28;20204;-73
2023/03/12 03:40:54;;;;;;;4.17;3.57;;;;;;;0.41;100.00;99947.19;5063123;28;20299;-72
2023/03/12 03:43:20;;;;;;;4.20;3.80;;;;;;;0.43;100.00;99930.25;5049260;28;20195;-73
2023/03/12 03:45:46;;;;;;;3.90;3.37;;;;;;;0.44;100.00;99926.91;5040348;28;20658;-72
2023/03/12 03:48:13;;;;;;;3.73;3.40;;;;;;;0.47;100.00;99927.78;5048621;28;20301;-73
2023/03/12 03:50:40;;;;;;;3.63;3.30;;;;;;;0.50;100.00;99916.00;5048966;28;20198;-73
2023/03/12 03:53:07;;;;;;;4.60;3.63;;;;;;;0.54;100.00;99917.78;5063658;28;20630;-72
2023/03/12 03:55:40;;;;;;;3.60;3.30;;;;;;;0.55;100.00;99916.97;5047654;28;20191;-72
2023/03/12 03:58:06;;;;;;;4.63;3.60;;;;;;;0.58;100.00;99911.97;5049231;28;20199;-73
2023/03/12 04:00:33;;;;;;;4.20;3.37;;;;;;;0.60;100.00;99920.50;5045744;28;20210;-73
2023/03/12 04:02:59;;;;;;;4.83;3.23;;;;;;;0.67;100.00;99913.03;5061959;28;20288;-73
2023/03/12 04:05:25;;;;;;;3.70;2.97;;;;;;;0.70;100.00;99908.00;5047553;28;20281;-73
2023/03/12 04:07:52;;;;;;;3.10;2.80;;;;;;;0.71;100.00;99919.91;5061104;28;20269;-73
2023/03/12 04:10:20;;;;;;;3.07;2.73;;;;;;;0.73;100.00;99925.91;5048804;28;20586;-72
2023/03/12 04:12:46;;;;;;;3.27;2.70;;;;;;;0.71;100.00;99925.00;5051922;28;20581;-72
2023/03/12 04:15:12;;;;;;;4.03;3.10;;;;;;;0.70;100.00;99929.25;5047252;28;20179;-73
2023/03/12 04:17:38;;;;;;;3.63;2.67;;;;;;;0.67;100.00;99933.41;5060694;28;20308;-73
2023/03/12 04:20:07;;;;;;;4.50;2.73;;;;;;;0.65;100.00;99929.97;5045073;28;20207;-72
2023/03/12 04:22:32;;;;;;;3.17;2.87;;;;;;;0.64;100.00;99936.72;5059668;28;20935;-73
2023/03/12 04:24:58;;;;;;;4.60;2.83;;;;;;;0.66;100.00;99929.13;5045990;28;20191;-73
2023/03/12 04:27:24;;;;;;;4.07;3.47;;;;;;;0.68;100.00;99925.78;5046948;28;20982;-72
2023/03/12 04:29:50;;;;;;;5.23;3.70;;;;;;;0.69;100.00;99926.63;5048112;28;20210;-73
2023/03/12 04:32:16;;;;;;;4.03;3.67;;;;;;;0.71;100.00;99930.09;5050358;28;20243;-73
2023/03/12 04:34:41;;;;;;;6.50;3.87;;;;;;;0.73;100.00;99936.97;5043869;28;20202;-73
2023/03/12 04:37:12;;;;;;;6.90;4.07;;;;;;;0.74;100.00;99931.06;5044895;28;20896;-72
2023/03/12 04:39:38;;;;;;;5.43;4.00;;;;;;;0.77;100.00;99943.00;5046020;28;20214;-73
2023/03/12 04:42:05;;;;;;;4.73;3.30;;;;;;;0.79;100.00;99948.13;5059199;28;20225;-73
2023/03/12 04:44:40;;;;;;;4.10;3.23;;;;;;;0.80;100.00;99953.28;5047656;28;20182;-73
2023/03/12 04:47:08;;;;;;;5.37;3.70;;;;;;;0.80;100.00;99954.94;5041766;28;20190;-72
2023/03/12 04:49:36;;;;;;;3.57;2.97;;;;;;;0.75;100.00;99949.72;5039913;28;20203;-73
2023/03/12 04:52:02;;;;;;;4.37;3.40;;;;;;;0.72;100.00;99949.66;5059945;28;20561;-70
2023/03/12 04:54:30;;;;;;;4.93;3.37;;;;;;;0.71;100.00;99951.34;5063353;28;20182;-74
2023/03/12 04:56:56;;;;;;;3.93;3.13;;;;;;;0.71;100.00;99950.47;5048470;28;20905;-73
2023/03/12 04:59:31;;;;;;;4.20;3.63;;;;;;;0.74;100.00;99956.53;5051293;28;20203;-73
2023/03/12 05:01:56;;;;;;;4.93;3.43;;;;;;;0.77;100.00;99950.63;5039554;28;20556;-73
2023/03/12 05:04:22;;;;;;;5.30;3.30;;;;;;;0.82;100.00;99955.84;5047068;28;20190;-72
2023/03/12 05:06:48;;;;;;;3.93;2.80;;;;;;;0.86;100.00;99950.00;5044195;28;20892;-73
2023/03/12 05:09:14;;;;;;;3.10;2.80;;;;;;;0.94;100.00;99951.03;5037354;28;20209;-73
2023/03/12 05:11:39;;;;;;;3.87;2.57;;;;;;;1.02;100.00;99941.03;5044650;28;20191;-72
2023/03/12 05:14:05;;;;;;;4.27;2.70;;;;;;;1.06;100.00;99942.84;5044722;28;20236;-73
2023/03/12 05:16:31;;;;;;;3.67;2.87;;;;;;;1.09;100.00;99935.28;5042715;28;20291;-72
2023/03/12 05:19:01;;;;;;;4.80;2.90;;;;;;;1.11;100.00;99935.31;5057787;28;20207;-72
2023/03/12 05:21:26;;;;;;;3.93;2.80;;;;;;;1.12;100.00;99929.38;5041706;28;20216;-73
2023/03/12 05:23:52;;;;;;;3.80;2.73;;;;;;;1.11;100.00;99920.88;5044610;28;20198;-73
2023/03/12 05:26:23;;;;;;;3.90;2.97;;;;;;;1.12;100.00;99924.28;5042432;28;20277;-72
2023/03/12 05:28:49;;;;;;;3.50;3.20;;;;;;;1.12;100.00;99925.16;5057294;28;20972;-73
2023/03/12 05:31:15;;;;;;;3.10;2.73;;;;;;;1.12;100.00;99927.72;5041328;28;20235;-72
2023/03/12 05:33:45;;;;;;;3.50;2.70;;;;;;;1.18;100.00;99929.53;5043821;28;20180;-73
2023/03/12 05:36:11;;;;;;;3.77;2.73;;;;;;;1.20;100.00;99916.00;5045624;28;20950;-73
2023/03/12 05:38:37;;;;;;;3.77;2.87;;;;;;;1.22;100.00;99913.47;5037490;28;20183;-73
2023/03/12 05:41:04;;;;;;;3.37;3.00;;;;;;;1.24;100.00;99910.97;5045193;28;20206;-73
2023/03/12 05:43:30;;;;;;;3.83;2.77;;;;;;;1.24;100.00;99893.97;5042467;28;20273;-73
2023/03/12 05:46:02;;;;;;;3.30;2.77;;;;;;;1.26;100.00;99905.06;5041473;28;20218;-73
2023/03/12 05:48:29;;;;;;;3.40;3.10;;;;;;;1.25;100.00;99898.25;5043379;28;20231;-72
2023/03/12 05:50:55;;;;;;;3.40;2.67;;;;;;;1.27;100.00;99900.84;5044922;28;20210;-73
2023/03/12 05:53:22;;;;;;;3.43;2.20;;;;;;;1.25;100.00;99900.81;5042521;28;20587;-73
2023/03/12 05:55:48;;;;;;;3.07;2.40;;;;;;;1.27;100.00;99905.97;5056699;28;20682;-72
2023/03/12 05:58:14;;;;;;;4.30;2.70;;;;;;;1.33;100.00;99899.31;5044430;28;20298;-72
2023/03/12 06:00:43;;;;;;;3.20;2.53;;;;;;;1.38;100.00;99899.41;5040870;28;20218;-72
2023/03/12 06:03:09;;;;;;;2.93;2.53;;;;;;;1.45;100.00;99893.59;5043956;28;20203;-73
2023/03/12 06:05:36;;;;;;;2.90;2.60;;;;;;;1.49;100.00;99899.63;5039116;28;20187;-73
2023/03/12 06:08:03;;;;;;;2.87;2.60;;;;;;;1.54;100.00;99890.38;5039270;28;20181;-72
2023/03/12 06:10:29;;;;;;;3.10;2.57;;;;;;;1.62;100.00;99888.00;5046281;28;20198;-73
2023/03/12 06:12:56;;;;;;;2.60;2.37;;;;;;;1.68;100.00;99895.78;5045094;28;20836;-73
2023/03/12 06:15:21;;;;;;;2.50;2.27;;;;;;;1.72;100.00;99891.59;5041442;28;20816;-73
2023/03/12 06:17:47;;;;;;;3.07;2.27;;;;;;;1.76;100.00;99907.00;5043073;28;20249;-73
2023/03/12 06:20:13;;;;;;;2.97;2.43;;;;;;;1.81;100.00;99904.56;5043376;28;20218;-73
2023/03/12 06:22:39;;;;;;;3.10;2.53;;;;;;;1.85;100.00;99897.81;5044449;28;20676;-73
2023/03/12 06:25:05;;;;;;;2.60;2.40;;;;;;;1.87;100.00;99898.72;5039700;28;20200;-73
2023/03/12 06:27:31;;;;;;;2.93;2.30;;;;;;;1.89;100.00;99903.00;5042243;28;20575;-73
2023/03/12 06:29:57;;;;;;;3.93;2.60;;;;;;;1.92;100.00;99910.75;5039273;28;20772;-73
2023/03/12 06:32:25;;;;;;;2.53;2.30;;;;;;;1.97;100.00;99908.28;5041158;28;20200;-73
2023/03/12 06:34:51;;;;;;;2.67;2.40;;;;;;;2.02;100.00;99905.81;5039586;28;20706;-73
2023/03/12 06:37:19;;;;;;;2.80;2.37;;;;;;;2.07;100.00;99907.63;5041321;28;20250;-74
2023/03/12 06:39:45;;;;;;;2.60;2.40;;;;;;;2.13;100.00;99912.84;5055159;28;20267;-73
2023/03/12 06:42:11;;;;;;;3.73;2.47;;;;;;;2.19;100.00;99909.53;5041350;28;20195;-73
2023/03/12 06:44:37;;;;;;;4.33;2.83;;;;;;;2.23;100.00;99910.47;5040963;28;20243;-73
2023/03/12 06:47:03;;;;;;;3.27;2.27;;;;;;;2.27;100.00;99907.13;5037521;28;20666;-73
2023/03/12 06:49:32;;;;;;;4.73;2.70;;;;;;;2.32;100.00;99909.78;5044266;28;20209;-73
2023/03/12 06:51:58;;;;;;;4.13;2.63;;;;;;;2.34;100.00;99900.44;5045497;28;22676;-73
2023/03/12 06:54:32;;;;;;;3.27;2.97;;;;;;;2.35;100.00;99905.56;5049230;28;20266;-73
2023/03/12 06:56:58;;;;;;;2.90;2.60;;;;;;;2.40;100.00;99906.53;5041084;28;20218;-73
2023/03/12 06:59:25;;;;;;;3.80;2.10;;;;;;;2.48;100.00;99896.44;5041747;28;20756;-72
2023/03/12 07:01:51;;;;;;;4.63;2.67;;;;;;;2.57;100.00;99911.94;5057060;28;20629;-73
2023/03/12 07:04:17;;;;;;;3.00;2.70;;;;;;;2.67;100.00;99919.78;5041585;28;20305;-73
2023/03/12 07:06:42;;;;;;;2.77;2.33;;;;;;;2.72;100.00;99911.34;5036769;28;20182;-73
2023/03/12 07:09:09;;;;;;;3.00;2.57;;;;;;;2.74;100.00;99919.91;5034203;28;20217;-73
2023/03/12 07:11:34;;;;;;;2.63;2.40;;;;;;;2.80;100.00;99913.19;5050097;28;20626;-73
2023/03/12 07:14:00;;;;;;;4.57;3.00;;;;;;;2.83;100.00;99918.31;5056386;28;20187;-73
2023/03/12 07:16:26;;;;;;;3.30;3.00;;;;;;;2.83;100.00;99915.78;5048455;28;20206;-74
2023/03/12 07:18:52;;;;;;;3.70;3.17;;;;;;;2.85;100.00;99916.66;5086588;28;20190;-74
2023/03/12 07:21:22;;;;;;;5.67;3.20;;;;;;;2.86;100.00;99919.25;5052042;28;20242;-73
2023/03/12 07:23:49;;;;;;;4.30;3.10;;;;;;;2.87;100.00;99926.06;5041546;28;20182;-73
2023/03/12 07:26:17;;;;;;;3.30;2.60;;;;;;;2.93;100.00;99929.56;5054362;28;20388;-73
2023/03/12 07:28:43;;;;;;;4.40;2.73;;;;;;;2.95;100.00;99925.34;5042990;28;20679;-73
2023/03/12 07:31:08;;;;;;;3.70;2.60;;;;;;;2.99;100.00;99930.53;5059953;28;20183;-73
2023/03/12 07:33:35;;;;;;;3.67;3.30;;;;;;;3.08;100.00;99928.97;5034227;28;20206;-73
2023/03/12 07:36:01;;;;;;;3.63;3.33;;;;;;;3.16;100.00;99938.47;5043178;28;20681;-73
2023/03/12 07:38:27;;;;;;;6.77;4.07;;;;;;;3.23;100.00;99943.66;5055926;28;20602;-73
2023/03/12 07:40:54;;;;;;;7.67;5.23;;;;;;;3.23;100.00;99944.56;5043773;28;20219;-73
2023/03/12 07:43:21;;;;;;;5.70;4.50;;;;;;;3.21;100.00;99938.53;5045515;28;20182;-73
2023/03/12 07:45:48;;;;;;;4.97;4.00;;;;;;;3.19;100.00;99950.44;5059448;28;20274;-74
2023/03/12 07:48:13;;;;;;;4.90;4.10;;;;;;;3.18;100.00;99947.00;5044140;28;20176;-73
2023/03/12 07:50:40;;;;;;;4.17;3.70;;;;;;;3.20;100.00;99947.06;5042203;28;20264;-73
2023/03/12 07:53:06;;;;;;;4.23;3.47;;;;;;;3.15;100.00;99941.88;5054242;28;20188;-73
2023/03/12 07:55:34;;;;;;;5.57;4.30;;;;;;;3.11;100.00;99936.66;5041294;28;20268;-73
2023/03/12 07:57:59;;;;;;;5.90;4.07;;;;;;;3.02;100.00;99945.06;5038049;28;20220;-73
2023/03/12 08:00:26;;;;;;;4.23;3.83;;;;;;;2.97;100.00;99939.84;5042383;28;20245;-74
2023/03/12 08:02:52;;;;;;;5.60;4.70;;;;;;;2.93;100.00;99930.44;5058880;28;20174;-73
2023/03/12 08:05:19;;;;;;;4.60;4.17;;;;;;;2.97;100.00;99942.41;5057572;28;20210;-73
2023/03/12 08:07:44;;;;;;;5.70;4.50;;;;;;;3.05;100.00;99948.53;5058432;28;20182;-73
2023/03/12 08:10:13;;;;;;;4.53;4.03;;;;;;;3.08;100.00;99962.19;5042163;28;20214;-73
2023/03/12 08:12:41;;;;;;;5.10;4.67;;;;;;;3.02;100.00;99958.69;5046861;28;20599;-73
2023/03/12 08:15:11;;;;;;;5.50;4.27;;;;;;;3.00;100.00;99960.38;5047084;28;20221;-73
2023/03/12 08:17:37;;;;;;;5.10;4.20;;;;;;;3.05;100.00;99966.44;5048520;28;20256;-73
2023/03/12 08:20:05;;;;;;;4.67;4.17;;;;;;;3.14;100.00;99970.84;5047353;28;20203;-73
2023/03/12 08:22:31;;;;;;;4.70;4.27;;;;;;;3.17;100.00;99975.13;5066040;28;20197;-75
2023/03/12 08:25:05;;;;;;;4.90;4.10;;;;;;;3.18;100.00;99982.81;5053794;28;20273;-73
2023/03/12 08:27:31;;;;;;;6.20;4.27;;;;;;;3.20;100.00;99975.19;5044394;28;20194;-73
2023/03/12 08:29:59;;;;;;;5.30;4.73;;;;;;;3.20;100.00;99977.75;5042559;28;20202;-74
2023/03/12 08:32:25;;;;;;;4.80;4.00;;;;;;;3.20;100.00;99977.75;5038255;28;20183;-72
2023/03/12 08:34:51;;;;;;;6.30;4.57;;;;;;;3.21;100.00;99982.03;5038300;28;20214;-73
2023/03/12 08:37:17;;;;;;;5.90;4.43;;;;;;;3.27;100.00;99973.59;5040159;28;20734;-73
2023/03/12 08:39:43;;;;;;;6.67;4.77;;;;;;;3.38;100.00;99972.03;5040116;28;20267;-73
2023/03/12 08:42:09;;;;;;;5.77;4.50;;;;;;;3.48;100.00;99981.56;5042407;28;20356;-73
2023/03/12 08:44:35;;;;;;;4.77;4.03;;;;;;;3.56;100.00;99984.25;5041178;28;20265;-73
2023/03/12 08:47:01;;;;;;;4.63;4.13;;;;;;;3.61;100.00;99984.34;5047908;28;20187;-73
2023/03/12 08:49:27;;;;;;;5.43;4.93;;;;;;;3.65;100.00;99973.28;5044337;28;20198;-73
2023/03/12 08:51:52;;;;;;;4.80;4.30;;;;;;;3.64;100.00;99979.22;5051921;28;20191;-73
2023/03/12 08:54:19;;;;;;;4.80;4.20;;;;;;;3.64;100.00;99977.56;5043038;28;20207;-73
2023/03/12 08:56:50;;;;;;;4.37;3.97;;;;;;;3.64;100.00;99974.13;5063109;28;20297;-72
2023/03/12 08:59:17;;;;;;;4.50;4.10;;;;;;;3.70;100.00;99986.16;5060662;28;20212;-73
2023/03/12 09:01:43;;;;;;;4.87;4.33;;;;;;;3.73;100.00;99978.50;5060756;28;20278;-73
2023/03/12 09:04:09;;;;;;;5.63;5.00;;;;;;;3.76;100.00;99976.88;5061757;28;20278;-74
2023/03/12 09:06:37;;;;;;;6.27;5.67;;;;;;;3.80;100.00;99988.00;5058729;28;20253;-74
2023/03/12 09:09:03;;;;;;;6.87;6.17;;;;;;;3.86;100.00;99979.53;5044022;28;20210;-74
2023/03/12 09:11:31;;;;;;;5.97;5.43;;;;;;;3.97;100.00;99981.41;5061962;28;20203;-74
2023/03/12 09:13:57;;;;;;;5.80;5.30;;;;;;;4.10;100.00;99987.53;5044618;28;20221;-73
2023/03/12 09:16:23;;;;;;;5.63;5.13;;;;;;;4.18;100.00;99982.50;5045907;28;20636;-74
2023/03/12 09:18:49;;;;;;;6.87;6.20;;;;;;;4.24;100.00;99977.47;5060458;28;20202;-73
2023/03/12 09:21:14;;;;;;;6.57;5.93;;;;;;;4.34;100.00;99982.69;5036019;28;20242;-73
2023/03/12 09:23:43;;;;;;;6.63;6.00;;;;;;;4.51;100.00;99988.03;5038610;28;20205;-74
2023/03/12 09:26:29;;;;;;;8.33;7.63;;;;;;;4.73;100.00;99984.81;5046933;28;20186;-74
2023/03/12 09:28:56;;;;;;;7.80;6.13;;;;;;;4.92;100.00;99986.69;5028014;28;20199;-74
2023/03/12 09:31:22;;;;;;;6.53;5.93;;;;;;;5.08;100.00;99982.59;5045787;28;20700;-74
2023/03/12 09:33:48;;;;;;;6.30;5.70;;;;;;;5.19;100.00;99979.28;5045156;28;20210;-74
2023/03/12 09:36:14;;;;;;;6.77;5.27;;;;;;;5.27;100.00;99998.97;5043171;28;20198;-74
2023/03/12 09:38:39;;;;;;;7.23;6.63;;;;;;;5.33;100.00;99968.25;5058210;28;20736;-73
2023/03/12 09:41:14;;;;;;;6.33;5.73;;;;;;;5.49;100.00;100000.00;5043870;28;20271;-74
2023/03/12 09:43:47;;;;;;;6.00;5.50;;;;;;;5.47;100.00;99979.47;5042116;28;20318;-73
2023/03/12 09:46:24;;;;;;;5.90;5.40;;;;;;;5.61;100.00;99979.53;5061131;28;20613;-73
2023/03/12 09:48:52;;;;;;;6.03;5.53;;;;;;;5.68;100.00;99997.56;5038807;28;20245;-73
2023/03/12 09:51:23;;;;;;;5.60;5.10;;;;;;;5.82;100.00;99975.41;5041849;28;20280;-73
2023/03/12 09:53:56;;;;;;;5.90;5.40;;;;;;;6.14;100.00;99969.59;5063680;28;20179;-73
2023/03/12 09:56:22;;;;;;;5.10;4.70;;;;;;;6.37;100.00;99989.34;5058596;28;20614;-73
2023/03/12 09:58:50;;;;;;;5.40;5.00;;;;;;;6.46;100.00;99986.84;5044827;28;20668;-73
2023/03/12 10:01:37;;;;;;;5.40;4.90;;;;;;;6.54;100.00;99989.44;5038860;28;20191;-73
2023/03/12 10:04:20;;;;;;;6.87;6.23;;;;;;;6.56;100.00;99996.28;5041426;28;20184;-74
2023/03/12 10:07:08;;;;;;;6.43;5.80;;;;;;;6.66;100.00;99994.59;5036920;28;20255;-74
2023/03/12 10:09:53;;;;;;;9.10;8.30;;;;;;;6.81;100.00;100000.63;5042790;28;20204;-74
2023/03/12 10:12:33;;;;;;;8.77;7.97;;;;;;;7.09;100.00;100000.66;5034127;28;20267;-74
2023/03/12 10:15:10;;;;;;;8.70;7.90;;;;;;;7.42;100.00;99996.38;5039449;28;20575;-73
2023/03/12 10:17:41;;;;;;;7.43;6.73;;;;;;;7.75;100.00;100007.50;5040311;28;20308;-72
2023/03/12 10:20:45;;;;;;;8.20;7.50;;;;;;;7.99;100.00;100001.44;5032817;28;20244;-73
2023/03/12 10:23:28;;;;;;;8.30;7.60;;;;;;;8.05;100.00;100006.56;5032694;28;20224;-75
2023/03/12 10:26:24;;;;;;;7.63;6.83;;;;;;;8.13;100.00;100010.84;5042275;28;20655;-75
2023/03/12 10:29:04;;;;;;;9.87;8.97;;;;;;;8.27;100.00;100009.06;5043569;28;20191;-73
2023/03/12 10:31:36;;;;;;;9.13;8.33;;;;;;;8.51;100.00;99999.53;5042975;28;20189;-73
2023/03/12 10:34:14;;;;;;;8.00;7.30;;;;;;;8.76;100.00;100004.56;5045113;28;20191;-75
2023/03/12 10:36:40;;;;;;;7.70;6.90;;;;;;;8.95;100.00;100000.13;5045308;28;20249;-74
2023/03/12 10:39:18;;;;;;;6.40;5.70;;;;;;;9.10;100.00;99992.28;5041164;28;20214;-73
2023/03/12 10:41:45;;;;;;;5.60;5.10;;;;;;;9.28;100.00;99991.25;5043536;28;20178;-73
2023/03/12 10:44:18;;;;;;;6.10;5.40;;;;;;;9.43;100.00;99990.28;5039505;28;20194;-73
2023/03/12 10:46:58;;;;;;;5.77;5.20;;;;;;;9.69;100.00;99988.31;5044290;28;20248;-73
2023/03/12 10:49:33;;;;;;;5.53;5.03;;;;;;;9.77;100.00;99991.69;5043057;28;20210;-74
2023/03/12 10:52:13;;;;;;;7.07;4.83;;;;;;;9.75;100.00;99986.53;5040434;28;20239;-74
2023/03/12 10:54:40;;;;;;;5.93;5.10;;;;;;;9.85;100.00;99981.25;5040445;28;20667;-74
2023/03/12 10:57:07;;;;;;;5.07;4.67;;;;;;;10.05;100.00;99981.91;5040758;28;20215;-73
2023/03/12 10:59:38;;;;;;;5.87;5.33;;;;;;;10.28;100.00;99982.50;5044420;28;20208;-74
2023/03/12 11:02:29;;;;;;;5.47;4.97;;;;;;;10.52;100.00;99984.78;5042684;28;20269;-73
2023/03/12 11:04:56;;;;;;;5.20;4.80;;;;;;;10.82;100.00;99977.44;5037984;28;20337;-74
2023/03/12 11:07:33;;;;;;;4.90;4.50;;;;;;;11.33;100.00;99973.22;5041306;28;20184;-74
2023/03/12 11:10:12;;;;;;;6.53;5.37;;;;;;;11.92;100.00;99966.94;5042119;28;20762;-73
2023/03/12 11:12:39;;;;;;;5.20;4.70;;;;;;;12.09;100.00;99963.19;5042587;28;20191;-74
2023/03/12 11:15:24;;;;;;;4.57;4.17;;;;;;;11.97;100.00;99967.69;5038059;28;20205;-74
2023/03/12 11:17:50;;;;;;;5.13;4.30;;;;;;;11.99;100.00;99970.31;5035249;28;20194;-74
2023/03/12 11:20:27;;;;;;;4.37;3.97;;;;;;;12.16;100.00;99967.34;5041787;28;20229;-73
2023/03/12 11:22:52;;;;;;;4.40;3.93;;;;;;;12.38;100.00;99975.53;5041539;28;20276;-73
2023/03/12 11:25:25;;;;;;;4.27;3.43;;;;;;;12.49;100.00;99983.94;5041405;28;20705;-74
2023/03/12 11:27:54;;;;;;;4.80;3.60;;;;;;;12.62;100.00;99986.28;5039151;28;20178;-73
2023/03/12 11:30:30;;;;;;;4.37;3.30;;;;;;;12.57;100.00;99983.78;5040564;28;20252;-74
2023/03/12 11:32:56;;;;;;;5.17;4.27;;;;;;;12.42;100.00;99978.91;5043179;28;20220;-73
2023/03/12 11:35:51;;;;;;;3.60;3.30;;;;;;;12.20;100.00;99979.38;5043209;28;20188;-74